createdAt,value
2023-11-25T00:00:05.794Z,0.00
2023-11-25T00:01:06.256Z,0.02
2023-11-25T00:02:05.614Z,0.00
2023-11-25T00:03:05.835Z,0.02
2023-11-25T00:04:05.324Z,0.00
2023-11-25T00:05:06.901Z,0.00
2023-11-25T00:06:05.956Z,0.02
2023-11-25T00:07:05.446Z,0.01
2023-11-25T00:08:05.789Z,0.00
2023-11-25T00:09:06.081Z,0.02
2023-11-25T00:10:06.612Z,0.00
2023-11-25T00:11:14.625Z,0.01
2023-11-25T00:12:06.268Z,0.00
2023-11-25T00:13:05.682Z,0.05
2023-11-25T00:14:05.969Z,0.07
2023-11-25T00:15:05.434Z,0.02
2023-11-25T00:16:05.734Z,0.00
2023-11-25T00:17:07.053Z,0.00
2023-11-25T00:18:05.680Z,0.01
2023-11-25T00:19:05.969Z,0.02
2023-11-25T00:20:05.376Z,0.00
2023-11-25T00:21:05.717Z,0.00
2023-11-25T00:22:06.166Z,0.00
2023-11-25T00:23:06.437Z,0.01
2023-11-25T00:24:04.953Z,0.02
2023-11-25T00:25:06.352Z,0.02
2023-11-25T00:26:05.706Z,0.02
2023-11-25T00:27:06.152Z,0.06
2023-11-25T00:28:04.527Z,0.02
2023-11-25T00:29:08.165Z,0.02
2023-11-25T00:30:05.340Z,0.00
2023-11-25T00:31:05.719Z,0.05
2023-11-25T00:32:06.066Z,0.02
2023-11-25T00:33:05.546Z,0.02
2023-11-25T00:34:05.985Z,0.00
2023-11-25T00:35:06.449Z,0.00
2023-11-25T00:36:04.657Z,0.01
2023-11-25T00:37:06.071Z,0.01
2023-11-25T00:38:05.405Z,0.00
2023-11-25T00:39:04.869Z,0.00
2023-11-25T00:40:05.445Z,0.02
2023-11-25T00:41:06.483Z,0.01
2023-11-25T00:42:05.082Z,0.00
2023-11-25T00:43:04.459Z,0.01
2023-11-25T00:44:05.828Z,0.02
2023-11-25T00:45:05.278Z,0.00
2023-11-25T00:46:04.734Z,0.05
2023-11-25T00:47:07.100Z,0.00
2023-11-25T00:48:04.506Z,0.01
2023-11-25T00:49:04.884Z,0.00
2023-11-25T00:50:05.265Z,0.02
2023-11-25T00:51:04.625Z,0.02
2023-11-25T00:52:05.992Z,0.06
2023-11-25T00:53:06.841Z,0.06
2023-11-25T00:54:04.806Z,0.00
2023-11-25T00:55:04.215Z,0.00
2023-11-25T00:56:05.559Z,0.00
2023-11-25T00:57:05.076Z,0.00
2023-11-25T00:58:04.400Z,0.00
2023-11-25T00:59:06.371Z,0.00
2023-11-25T01:00:04.157Z,0.00
2023-11-25T01:01:04.580Z,0.01
2023-11-25T01:02:05.005Z,0.02
2023-11-25T01:03:04.399Z,0.00
2023-11-25T01:04:05.015Z,0.00
2023-11-25T01:05:04.139Z,0.01
2023-11-25T01:06:04.517Z,0.00
2023-11-25T01:07:04.921Z,0.02
2023-11-25T01:08:05.222Z,0.05
2023-11-25T01:09:05.600Z,0.00
2023-11-25T01:10:04.979Z,0.02
2023-11-25T01:11:06.520Z,0.02
2023-11-25T01:12:04.783Z,0.00
2023-11-25T01:13:04.220Z,0.00
2023-11-25T01:14:04.530Z,0.00
2023-11-25T01:15:04.992Z,0.00
2023-11-25T01:16:05.400Z,0.02
2023-11-25T01:17:07.078Z,0.02
2023-11-25T01:18:05.037Z,0.00
2023-11-25T01:19:04.452Z,0.02
2023-11-25T01:20:05.775Z,0.02
2023-11-25T01:21:05.128Z,0.00
2023-11-25T01:22:04.657Z,0.00
2023-11-25T01:23:03.961Z,0.02
2023-11-25T01:24:04.310Z,0.02
2023-11-25T01:25:04.803Z,0.00
2023-11-25T01:26:04.082Z,0.00
2023-11-25T01:27:04.481Z,0.00
2023-11-25T01:28:03.841Z,0.00
2023-11-25T01:29:04.281Z,0.00
2023-11-25T01:30:04.639Z,0.02
2023-11-25T01:31:04.013Z,0.00
2023-11-25T01:32:04.397Z,0.00
2023-11-25T01:33:04.827Z,0.00
2023-11-25T01:34:04.200Z,0.02
2023-11-25T01:35:07.129Z,0.01
2023-11-25T01:36:03.886Z,0.00
2023-11-25T01:37:05.268Z,0.00
2023-11-25T01:38:04.622Z,0.00
2023-11-25T01:39:05.006Z,0.00
2023-11-25T01:40:05.453Z,0.02
2023-11-25T01:41:05.161Z,0.00
2023-11-25T01:42:05.115Z,0.00
2023-11-25T01:43:05.535Z,0.02
2023-11-25T01:44:04.854Z,0.00
2023-11-25T01:45:05.253Z,0.00
2023-11-25T01:46:04.690Z,0.01
2023-11-25T01:47:04.177Z,0.02
2023-11-25T01:48:05.404Z,0.00
2023-11-25T01:49:04.763Z,0.00
2023-11-25T01:50:04.186Z,0.00
2023-11-25T01:51:03.551Z,0.05
2023-11-25T01:52:04.921Z,0.00
2023-11-25T01:53:06.441Z,0.01
2023-11-25T01:54:04.498Z,0.00
2023-11-25T01:55:04.000Z,0.02
2023-11-25T01:56:05.345Z,0.02
2023-11-25T01:57:04.702Z,0.02
2023-11-25T01:58:05.201Z,0.00
2023-11-25T01:59:04.561Z,0.02
2023-11-25T02:00:04.935Z,0.00
2023-11-25T02:01:04.438Z,0.00
2023-11-25T02:02:03.909Z,0.00
2023-11-25T02:03:04.396Z,0.00
2023-11-25T02:04:03.617Z,0.02
2023-11-25T02:05:05.051Z,0.00
2023-11-25T02:06:03.350Z,0.00
2023-11-25T02:07:04.757Z,0.00
2023-11-25T02:08:04.145Z,0.00
2023-11-25T02:09:03.512Z,0.06
2023-11-25T02:10:03.963Z,0.02
2023-11-25T02:11:03.251Z,0.00
2023-11-25T02:12:04.644Z,0.01
2023-11-25T02:13:05.107Z,0.02
2023-11-25T02:14:04.451Z,0.02
2023-11-25T02:15:04.861Z,0.01
2023-11-25T02:16:04.459Z,0.02
2023-11-25T02:17:04.686Z,0.02
2023-11-25T02:18:05.090Z,0.02
2023-11-25T02:19:03.200Z,0.00
2023-11-25T02:20:04.540Z,0.00
2023-11-25T02:21:04.982Z,0.01
2023-11-25T02:22:04.315Z,0.06
2023-11-25T02:23:04.752Z,0.00
2023-11-25T02:24:03.169Z,0.00
2023-11-25T02:25:04.562Z,0.01
2023-11-25T02:26:05.332Z,0.02
2023-11-25T02:27:04.344Z,0.00
2023-11-25T02:28:04.930Z,0.02
2023-11-25T02:29:04.113Z,0.02
2023-11-25T02:30:04.519Z,0.07
2023-11-25T02:31:03.888Z,0.02
2023-11-25T02:32:04.562Z,0.02
2023-11-25T02:33:04.734Z,0.02
2023-11-25T02:34:04.069Z,0.02
2023-11-25T02:35:03.507Z,0.02
2023-11-25T02:36:03.825Z,0.01
2023-11-25T02:37:04.225Z,0.02
2023-11-25T02:38:04.761Z,0.02
2023-11-25T02:39:04.003Z,0.01
2023-11-25T02:40:04.428Z,0.00
2023-11-25T02:41:03.769Z,0.02
2023-11-25T02:42:04.199Z,0.00
2023-11-25T02:43:03.645Z,0.02
2023-11-25T02:44:04.042Z,0.02
2023-11-25T02:45:04.372Z,0.02
2023-11-25T02:46:03.728Z,0.02
2023-11-25T02:47:04.139Z,0.02
2023-11-25T02:48:03.584Z,0.02
2023-11-25T02:49:03.831Z,0.02
2023-11-25T02:50:04.362Z,0.02
2023-11-25T02:51:04.626Z,0.02
2023-11-25T02:53:04.375Z,0.02
2023-11-25T02:54:03.740Z,0.02
2023-11-25T02:55:04.124Z,0.02
2023-11-25T02:56:04.571Z,0.01
2023-11-25T02:57:03.899Z,0.02
2023-11-25T02:58:04.330Z,0.02
2023-11-25T02:59:03.671Z,0.05
2023-11-25T03:00:04.128Z,0.02
2023-11-25T03:01:02.526Z,0.00
2023-11-25T03:02:04.069Z,0.01
2023-11-25T03:03:04.343Z,0.02
2023-11-25T03:04:03.667Z,0.07
2023-11-25T03:05:04.045Z,0.02
2023-11-25T03:06:04.451Z,0.02
2023-11-25T03:07:03.815Z,0.02
2023-11-25T03:08:04.390Z,0.02
2023-11-25T03:09:03.632Z,0.02
2023-11-25T03:10:04.025Z,0.07
2023-11-25T03:11:03.415Z,0.02
2023-11-25T03:12:03.798Z,0.02
2023-11-25T03:13:03.263Z,0.02
2023-11-25T03:14:03.631Z,0.02
2023-11-25T03:15:03.986Z,0.00
2023-11-25T03:16:03.385Z,0.02
2023-11-25T03:17:03.868Z,0.02
2023-11-25T03:18:04.222Z,0.02
2023-11-25T03:19:03.557Z,0.02
2023-11-25T03:20:04.028Z,0.02
2023-11-25T03:21:03.369Z,0.02
2023-11-25T03:22:03.758Z,0.01
2023-11-25T03:23:04.213Z,0.02
2023-11-25T03:24:02.591Z,0.02
2023-11-25T03:25:03.968Z,0.01
2023-11-25T03:26:03.387Z,0.02
2023-11-25T03:27:03.760Z,0.01
2023-11-25T03:28:04.166Z,0.01
2023-11-25T03:29:03.525Z,0.00
2023-11-25T03:30:03.942Z,0.02
2023-11-25T03:31:02.360Z,0.02
2023-11-25T03:32:02.870Z,0.02
2023-11-25T03:33:03.105Z,0.01
2023-11-25T03:34:02.523Z,0.02
2023-11-25T03:35:02.925Z,0.02
2023-11-25T03:36:03.220Z,0.01
2023-11-25T03:37:02.669Z,0.08
2023-11-25T03:38:03.262Z,0.02
2023-11-25T03:39:02.420Z,0.02
2023-11-25T03:40:02.825Z,0.10
2023-11-25T03:41:02.186Z,0.01
2023-11-25T03:42:03.539Z,0.01
2023-11-25T03:43:03.959Z,0.03
2023-11-25T03:44:02.500Z,0.02
2023-11-25T03:45:02.770Z,0.02
2023-11-25T03:46:03.096Z,0.03
2023-11-25T03:47:03.547Z,0.02
2023-11-25T03:48:03.090Z,0.01
2023-11-25T03:49:02.268Z,0.01
2023-11-25T03:50:02.718Z,0.03
2023-11-25T03:51:02.046Z,0.01
2023-11-25T03:52:02.451Z,0.01
2023-11-25T03:53:03.812Z,0.01
2023-11-25T03:54:02.207Z,0.10
2023-11-25T03:55:02.630Z,0.01
2023-11-25T03:56:02.109Z,0.01
2023-11-25T03:57:03.348Z,0.01
2023-11-25T03:58:03.745Z,0.01
2023-11-25T03:59:02.196Z,0.01
2023-11-25T04:00:03.505Z,0.01
2023-11-25T04:01:01.905Z,0.01
2023-11-25T04:02:02.450Z,0.01
2023-11-25T04:03:02.900Z,0.02
2023-11-25T04:04:03.212Z,0.02
2023-11-25T04:06:01.852Z,0.02
2023-11-25T04:07:02.283Z,0.00
2023-11-25T04:09:02.031Z,0.06
2023-11-25T04:10:02.436Z,0.00
2023-11-25T04:11:01.806Z,0.00
2023-11-25T04:12:03.230Z,0.02
2023-11-25T04:13:02.626Z,0.01
2023-11-25T04:14:02.039Z,0.00
2023-11-25T04:15:02.428Z,0.01
2023-11-25T04:16:02.766Z,0.01
2023-11-25T04:17:02.257Z,0.01
2023-11-25T04:18:02.609Z,0.00
2023-11-25T04:19:01.878Z,0.02
2023-11-25T04:20:02.420Z,0.06
2023-11-25T04:21:01.672Z,0.00
2023-11-25T04:22:02.032Z,0.06
2023-11-25T04:23:02.411Z,0.01
2023-11-25T04:24:02.703Z,0.02
2023-11-25T04:25:02.144Z,0.02
2023-11-25T04:26:01.538Z,0.02
2023-11-25T04:27:01.873Z,0.02
2023-11-25T04:28:02.289Z,0.01
2023-11-25T04:29:01.614Z,0.02
2023-11-25T04:30:02.969Z,0.02
2023-11-25T04:31:01.364Z,0.02
2023-11-25T04:32:01.855Z,0.00
2023-11-25T04:33:03.147Z,0.02
2023-11-25T04:34:01.509Z,0.02
2023-11-25T04:35:02.808Z,0.06
2023-11-25T04:36:02.286Z,0.00
2023-11-25T04:37:01.658Z,0.01
2023-11-25T04:38:03.167Z,0.02
2023-11-25T04:39:01.396Z,0.02
2023-11-25T04:40:01.410Z,0.00
2023-11-25T04:41:01.811Z,0.00
2023-11-25T04:42:02.165Z,0.02
2023-11-25T04:43:01.507Z,0.00
2023-11-25T04:44:01.934Z,0.02
2023-11-25T04:45:01.465Z,0.01
2023-11-25T04:46:01.632Z,0.00
2023-11-25T04:47:02.092Z,0.00
2023-11-25T04:48:01.446Z,0.02
2023-11-25T04:49:01.776Z,0.00
2023-11-25T04:50:02.226Z,0.02
2023-11-25T04:51:01.527Z,0.02
2023-11-25T04:52:01.927Z,0.02
2023-11-25T04:53:01.298Z,0.00
2023-11-25T04:54:01.678Z,0.01
2023-11-25T04:55:02.108Z,0.01
2023-11-25T04:56:01.473Z,0.01
2023-11-25T04:57:01.824Z,0.00
2023-11-25T04:59:01.533Z,0.01
2023-11-25T05:00:01.164Z,0.02
2023-11-25T05:01:01.580Z,0.00
2023-11-25T05:02:01.975Z,0.00
2023-11-25T05:03:01.116Z,0.02
2023-11-25T05:04:01.489Z,0.01
2023-11-25T05:05:01.847Z,0.02
2023-11-25T05:06:01.198Z,0.02
2023-11-25T05:07:01.591Z,0.01
2023-11-25T05:08:00.918Z,0.00
2023-11-25T05:10:01.714Z,0.00
2023-11-25T05:11:01.053Z,0.02
2023-11-25T05:12:01.467Z,0.00
2023-11-25T05:13:00.844Z,0.00
2023-11-25T05:14:01.194Z,0.02
2023-11-25T05:15:01.653Z,0.01
2023-11-25T05:16:00.961Z,0.01
2023-11-25T05:17:01.446Z,0.00
2023-11-25T05:18:01.849Z,0.02
2023-11-25T05:19:01.126Z,0.00
2023-11-25T05:20:01.556Z,0.01
2023-11-25T05:21:00.913Z,0.01
2023-11-25T05:22:01.323Z,0.02
2023-11-25T05:24:01.159Z,0.02
2023-11-25T05:25:01.492Z,0.00
2023-11-25T05:26:00.869Z,0.00
2023-11-25T05:27:01.262Z,0.02
2023-11-25T05:28:01.674Z,0.02
2023-11-25T05:29:01.009Z,0.02
2023-11-25T05:30:01.452Z,0.02
2023-11-25T05:31:00.774Z,0.02
2023-11-25T05:32:01.207Z,0.01
2023-11-25T05:33:01.609Z,0.00
2023-11-25T05:34:00.881Z,0.02
2023-11-25T05:35:01.249Z,0.00
2023-11-25T05:36:00.661Z,0.06
2023-11-25T05:37:00.979Z,0.00
2023-11-25T05:38:01.413Z,0.00
2023-11-25T05:39:00.710Z,0.01
2023-11-25T05:40:01.087Z,0.01
2023-11-25T05:41:01.503Z,0.00
2023-11-25T05:42:00.823Z,0.00
2023-11-25T05:43:02.948Z,0.00
2023-11-25T05:44:00.550Z,0.02
2023-11-25T05:45:00.954Z,0.01
2023-11-25T05:46:01.384Z,0.02
2023-11-25T05:47:00.774Z,0.00
2023-11-25T05:48:01.099Z,0.02
2023-11-25T05:49:00.418Z,0.01
2023-11-25T05:50:00.800Z,0.02
2023-11-25T05:51:01.162Z,0.00
2023-11-25T05:52:01.326Z,0.00
2023-11-25T05:54:01.276Z,0.00
2023-11-25T05:55:00.642Z,0.00
2023-11-25T05:56:01.084Z,0.00
2023-11-25T05:57:00.368Z,0.00
2023-11-25T05:58:00.865Z,0.00
2023-11-25T05:59:01.194Z,0.00
2023-11-25T06:00:00.472Z,0.07
2023-11-25T06:01:00.803Z,0.00
2023-11-25T06:02:01.256Z,0.00
2023-11-25T06:03:00.546Z,0.02
2023-11-25T06:04:01.023Z,0.02
2023-11-25T06:05:00.474Z,0.02
2023-11-25T06:06:00.664Z,0.02
2023-11-25T06:07:01.042Z,0.02
2023-11-25T06:08:00.424Z,0.08
2023-11-25T06:09:00.777Z,0.01
2023-11-25T06:10:01.083Z,0.01
2023-11-25T06:11:00.753Z,0.01
2023-11-25T06:12:01.875Z,0.01
2023-11-25T06:13:00.277Z,0.03
2023-11-25T06:14:00.684Z,0.03
2023-11-25T06:15:01.108Z,0.03
2023-11-25T06:16:00.391Z,0.01
2023-11-25T06:17:00.836Z,0.02
2023-11-25T06:18:00.280Z,0.02
2023-11-25T06:19:00.504Z,0.02
2023-11-25T06:20:00.888Z,0.03
2023-11-25T06:21:00.238Z,0.03
2023-11-25T06:22:00.661Z,0.04
2023-11-25T06:23:00.013Z,0.04
2023-11-25T06:24:00.364Z,0.05
2023-11-25T06:25:00.752Z,0.09
2023-11-25T06:26:00.100Z,0.16
2023-11-25T06:27:00.487Z,0.08
2023-11-25T06:28:00.888Z,0.10
2023-11-25T06:29:00.220Z,0.11
2023-11-25T06:30:00.561Z,0.13
2023-11-25T06:31:00.839Z,0.22
2023-11-25T06:32:00.236Z,0.16
2023-11-25T06:33:00.641Z,0.20
2023-11-25T06:34:00.154Z,0.23
2023-11-25T06:35:01.299Z,0.25
2023-11-25T06:36:00.676Z,0.31
2023-11-25T06:37:00.006Z,0.34
2023-11-25T06:38:00.584Z,0.39
2023-11-25T06:39:00.734Z,0.46
2023-11-25T06:40:00.223Z,0.52
2023-11-25T06:41:00.496Z,0.63
2023-11-25T06:41:59.861Z,0.74
2023-11-25T06:43:00.226Z,0.86
2023-11-25T06:44:00.688Z,0.98
2023-11-25T06:44:59.933Z,1.05
2023-11-25T06:46:00.444Z,1.24
2023-11-25T06:46:59.736Z,1.41
2023-11-25T06:48:00.146Z,1.55
2023-11-25T06:49:00.506Z,1.70
2023-11-25T06:49:59.865Z,1.80
2023-11-25T06:51:00.327Z,1.94
2023-11-25T06:51:59.695Z,2.07
2023-11-25T06:53:00.056Z,2.23
2023-11-25T06:54:00.468Z,2.49
2023-11-25T06:54:59.830Z,2.82
2023-11-25T06:56:00.291Z,3.16
2023-11-25T06:56:59.562Z,3.48
2023-11-25T06:58:00.022Z,3.75
2023-11-25T06:59:00.354Z,4.05
2023-11-25T07:00:00.640Z,4.33
2023-11-25T07:01:00.102Z,4.58
2023-11-25T07:02:00.546Z,4.78
2023-11-25T07:03:00.733Z,4.89
2023-11-25T07:04:00.233Z,5.49
2023-11-25T07:05:00.437Z,5.86
2023-11-25T07:05:59.862Z,6.77
2023-11-25T07:07:00.291Z,7.19
2023-11-25T07:07:59.606Z,7.24
2023-11-25T07:09:00.002Z,7.43
2023-11-25T07:09:59.416Z,8.04
2023-11-25T07:10:59.747Z,8.27
2023-11-25T07:12:00.118Z,8.25
2023-11-25T07:12:59.468Z,8.13
2023-11-25T07:13:59.843Z,7.79
2023-11-25T07:15:00.281Z,7.31
2023-11-25T07:15:59.755Z,7.42
2023-11-25T07:17:00.028Z,7.59
2023-11-25T07:17:59.537Z,7.96
2023-11-25T07:18:59.677Z,8.31
2023-11-25T07:20:00.112Z,8.59
2023-11-25T07:20:59.448Z,8.73
2023-11-25T07:21:59.795Z,8.31
2023-11-25T07:22:59.184Z,7.43
2023-11-25T07:24:00.544Z,6.69
2023-11-25T07:24:59.920Z,6.18
2023-11-25T07:25:59.303Z,6.91
2023-11-25T07:26:59.632Z,8.10
2023-11-25T07:28:00.045Z,8.93
2023-11-25T07:28:59.333Z,8.47
2023-11-25T07:29:59.725Z,8.81
2023-11-25T07:30:59.172Z,9.61
2023-11-25T07:31:59.458Z,9.70
2023-11-25T07:32:59.852Z,10.07
2023-11-25T07:33:59.137Z,9.93
2023-11-25T07:34:59.540Z,10.27
2023-11-25T07:35:59.953Z,10.38
2023-11-25T07:36:59.212Z,10.26
2023-11-25T07:37:59.583Z,10.17
2023-11-25T07:38:59.960Z,10.43
2023-11-25T07:39:59.304Z,11.14
2023-11-25T07:40:59.703Z,11.71
2023-11-25T07:41:59.274Z,12.85
2023-11-25T07:42:59.358Z,14.51
2023-11-25T07:43:59.761Z,16.00
2023-11-25T07:44:59.056Z,16.00
2023-11-25T07:45:59.409Z,16.14
2023-11-25T07:47:00.204Z,15.58
2023-11-25T07:47:59.178Z,14.93
2023-11-25T07:48:59.501Z,14.42
2023-11-25T07:49:58.811Z,11.79
2023-11-25T07:50:59.177Z,8.96
2023-11-25T07:52:00.503Z,8.49
2023-11-25T07:52:58.918Z,13.57
2023-11-25T07:54:00.249Z,14.54
2023-11-25T07:54:59.644Z,13.40
2023-11-25T07:55:59.919Z,13.04
2023-11-25T07:56:59.328Z,14.32
2023-11-25T07:57:59.689Z,15.75
2023-11-25T07:59:00.689Z,16.11
2023-11-25T07:59:59.346Z,16.79
2023-11-25T08:00:58.670Z,18.02
2023-11-25T08:01:59.091Z,19.52
2023-11-25T08:02:59.589Z,22.09
2023-11-25T08:03:58.934Z,24.90
2023-11-25T08:04:59.126Z,24.36
2023-11-25T08:05:59.475Z,27.58
2023-11-25T08:06:58.811Z,32.99
2023-11-25T08:07:59.250Z,31.59
2023-11-25T08:08:59.662Z,34.66
2023-11-25T08:09:59.858Z,44.14
2023-11-25T08:10:59.334Z,56.62
2023-11-25T08:11:58.589Z,61.44
2023-11-25T08:13:00.705Z,64.30
2023-11-25T08:13:59.428Z,59.09
2023-11-25T08:14:58.748Z,52.67
2023-11-25T08:15:59.088Z,52.76
2023-11-25T08:16:59.455Z,59.42
2023-11-25T08:17:58.811Z,65.20
2023-11-25T08:18:59.111Z,68.79
2023-11-25T08:19:58.501Z,72.25
2023-11-25T08:20:58.999Z,73.49
2023-11-25T08:21:59.229Z,74.67
2023-11-25T08:22:58.651Z,71.38
2023-11-25T08:23:58.948Z,54.77
2023-11-25T08:24:59.299Z,43.35
2023-11-25T08:25:58.670Z,44.76
2023-11-25T08:26:59.035Z,49.86
2023-11-25T08:27:59.346Z,56.03
2023-11-25T08:28:58.684Z,61.41
2023-11-25T08:29:58.982Z,65.22
2023-11-25T08:30:58.309Z,62.84
2023-11-25T08:31:58.739Z,54.81
2023-11-25T08:32:59.190Z,47.54
2023-11-25T08:33:58.350Z,44.79
2023-11-25T08:34:58.744Z,52.76
2023-11-25T08:35:59.063Z,65.07
2023-11-25T08:36:58.403Z,81.42
2023-11-25T08:37:58.785Z,104.22
2023-11-25T08:38:59.125Z,132.49
2023-11-25T08:39:58.378Z,169.49
2023-11-25T08:40:58.785Z,203.77
2023-11-25T08:41:59.081Z,221.03
2023-11-25T08:42:58.374Z,212.17
2023-11-25T08:43:58.778Z,186.13
2023-11-25T08:44:59.145Z,132.22
2023-11-25T08:45:59.379Z,101.28
2023-11-25T08:46:59.789Z,68.08
2023-11-25T08:47:58.160Z,53.16
2023-11-25T08:48:58.418Z,52.93
2023-11-25T08:49:58.860Z,59.47
2023-11-25T08:50:58.270Z,45.49
2023-11-25T08:51:58.453Z,41.90
2023-11-25T08:52:58.855Z,39.64
2023-11-25T08:53:58.154Z,42.59
2023-11-25T08:54:58.574Z,42.52
2023-11-25T08:55:58.974Z,44.93
2023-11-25T08:56:58.166Z,44.33
2023-11-25T08:57:58.510Z,48.21
2023-11-25T08:59:06.260Z,54.31
2023-11-25T08:59:59.193Z,59.74
2023-11-25T09:00:58.573Z,67.60
2023-11-25T09:01:58.076Z,78.43
2023-11-25T09:02:58.288Z,90.53
2023-11-25T09:03:58.608Z,96.92
2023-11-25T09:05:04.029Z,95.14
2023-11-25T09:05:59.261Z,85.94
2023-11-25T09:06:58.667Z,87.59
2023-11-25T09:07:57.977Z,97.31
2023-11-25T09:08:58.274Z,100.55
2023-11-25T09:09:58.642Z,94.14
2023-11-25T09:10:57.998Z,90.89
2023-11-25T09:11:58.302Z,90.10
2023-11-25T09:12:58.670Z,91.04
2023-11-25T09:13:59.022Z,97.21
2023-11-25T09:14:58.311Z,100.64
2023-11-25T09:15:58.691Z,114.91
2023-11-25T09:16:58.059Z,124.35
2023-11-25T09:17:58.380Z,107.50
2023-11-25T09:19:00.310Z,102.20
2023-11-25T09:19:58.055Z,102.90
2023-11-25T09:20:58.399Z,91.83
2023-11-25T09:21:57.718Z,90.58
2023-11-25T09:22:58.184Z,90.36
2023-11-25T09:23:58.509Z,91.27
2023-11-25T09:24:57.825Z,103.33
2023-11-25T09:25:59.222Z,106.62
2023-11-25T09:26:57.506Z,106.69
2023-11-25T09:27:57.848Z,103.85
2023-11-25T09:28:58.255Z,102.97
2023-11-25T09:29:57.514Z,102.71
2023-11-25T09:30:57.842Z,109.98
2023-11-25T09:31:58.187Z,134.30
2023-11-25T09:32:57.569Z,150.19
2023-11-25T09:33:58.908Z,175.63
2023-11-25T09:34:58.256Z,168.78
2023-11-25T09:35:57.524Z,157.30
2023-11-25T09:36:57.861Z,141.17
2023-11-25T09:37:59.265Z,139.69
2023-11-25T09:38:57.535Z,120.42
2023-11-25T09:39:57.909Z,95.00
2023-11-25T09:40:58.304Z,93.79
2023-11-25T09:41:57.524Z,105.22
2023-11-25T09:42:57.875Z,99.54
2023-11-25T09:43:58.259Z,86.37
2023-11-25T09:44:57.535Z,72.62
2023-11-25T09:45:57.934Z,62.31
2023-11-25T09:46:58.353Z,71.14
2023-11-25T09:47:58.549Z,90.88
2023-11-25T09:48:57.884Z,92.46
2023-11-25T09:49:58.258Z,75.05
2023-11-25T09:50:57.551Z,60.88
2023-11-25T09:51:58.019Z,58.14
2023-11-25T09:52:57.321Z,67.61
2023-11-25T09:53:58.573Z,90.16
2023-11-25T09:54:58.007Z,98.75
2023-11-25T09:55:57.442Z,103.30
2023-11-25T09:56:57.657Z,102.61
2023-11-25T09:57:58.113Z,101.90
2023-11-25T09:58:57.404Z,106.47
2023-11-25T09:59:57.729Z,109.12
2023-11-25T10:00:57.063Z,113.90
2023-11-25T10:01:57.525Z,122.56
2023-11-25T10:02:58.058Z,147.13
2023-11-25T10:03:57.194Z,142.97
2023-11-25T10:04:57.499Z,135.74
2023-11-25T10:05:57.896Z,140.92
2023-11-25T10:06:57.206Z,146.30
2023-11-25T10:07:57.587Z,150.90
2023-11-25T10:08:58.034Z,142.86
2023-11-25T10:09:58.321Z,119.81
2023-11-25T10:10:57.695Z,93.69
2023-11-25T10:11:57.014Z,71.92
2023-11-25T10:12:57.389Z,62.04
2023-11-25T10:13:57.803Z,52.19
2023-11-25T10:14:57.096Z,55.31
2023-11-25T10:15:57.442Z,68.64
2023-11-25T10:16:57.827Z,67.94
2023-11-25T10:17:57.115Z,66.24
2023-11-25T10:18:57.480Z,67.33
2023-11-25T10:19:58.024Z,63.69
2023-11-25T10:20:57.157Z,68.09
2023-11-25T10:21:57.525Z,77.64
2023-11-25T10:22:56.898Z,78.24
2023-11-25T10:23:57.215Z,65.99
2023-11-25T10:24:57.648Z,57.37
2023-11-25T10:25:56.958Z,73.60
2023-11-25T10:26:58.229Z,91.90
2023-11-25T10:27:57.915Z,132.50
2023-11-25T10:28:57.929Z,157.70
2023-11-25T10:29:58.266Z,124.19
2023-11-25T10:30:57.687Z,115.10
2023-11-25T10:31:56.992Z,123.16
2023-11-25T10:32:57.382Z,120.03
2023-11-25T10:33:57.610Z,122.75
2023-11-25T10:34:57.042Z,115.25
2023-11-25T10:35:57.448Z,123.42
2023-11-25T10:36:56.747Z,130.25
2023-11-25T10:37:57.170Z,120.96
2023-11-25T10:38:57.427Z,111.42
2023-11-25T10:39:56.716Z,110.74
2023-11-25T10:40:57.121Z,110.66
2023-11-25T10:41:57.490Z,111.48
2023-11-25T10:42:57.734Z,116.42
2023-11-25T10:43:57.160Z,118.51
2023-11-25T10:44:57.466Z,106.82
2023-11-25T10:45:56.881Z,88.65
2023-11-25T10:46:57.269Z,80.88
2023-11-25T10:47:57.606Z,79.90
2023-11-25T10:48:56.823Z,80.53
2023-11-25T10:49:57.187Z,82.79
2023-11-25T10:50:57.456Z,75.26
2023-11-25T10:51:56.867Z,73.35
2023-11-25T10:52:57.241Z,66.87
2023-11-25T10:53:56.569Z,70.70
2023-11-25T10:54:56.906Z,82.20
2023-11-25T10:55:57.381Z,86.80
2023-11-25T10:56:56.585Z,82.74
2023-11-25T10:57:56.921Z,77.95
2023-11-25T10:58:57.321Z,74.29
2023-11-25T10:59:56.558Z,78.51
2023-11-25T11:00:56.955Z,90.40
2023-11-25T11:01:57.391Z,103.71
2023-11-25T11:02:56.680Z,101.47
2023-11-25T11:03:56.915Z,105.22
2023-11-25T11:04:57.314Z,101.56
2023-11-25T11:05:56.571Z,95.27
2023-11-25T11:06:56.918Z,98.46
2023-11-25T11:07:56.216Z,103.77
2023-11-25T11:08:57.500Z,94.87
2023-11-25T11:09:57.814Z,88.71
2023-11-25T11:10:56.358Z,91.04
2023-11-25T11:11:56.608Z,89.80
2023-11-25T11:12:57.869Z,75.03
2023-11-25T11:13:56.206Z,72.81
2023-11-25T11:14:56.542Z,78.20
2023-11-25T11:15:56.930Z,86.97
2023-11-25T11:16:56.287Z,94.96
2023-11-25T11:17:56.657Z,98.66
2023-11-25T11:18:56.966Z,109.84
2023-11-25T11:19:56.273Z,95.36
2023-11-25T11:20:56.607Z,71.96
2023-11-25T11:21:57.018Z,66.01
2023-11-25T11:22:56.235Z,52.07
2023-11-25T11:23:56.677Z,45.04
2023-11-25T11:24:56.958Z,65.52
2023-11-25T11:25:56.314Z,71.92
2023-11-25T11:26:56.609Z,85.80
2023-11-25T11:27:55.942Z,105.57
2023-11-25T11:28:56.298Z,99.26
2023-11-25T11:29:56.623Z,85.37
2023-11-25T11:30:55.952Z,83.47
2023-11-25T11:31:56.339Z,86.73
2023-11-25T11:32:56.726Z,95.01
2023-11-25T11:33:55.985Z,93.46
2023-11-25T11:34:56.331Z,78.90
2023-11-25T11:35:56.663Z,79.95
2023-11-25T11:36:56.005Z,88.19
2023-11-25T11:37:58.324Z,87.53
2023-11-25T11:38:56.843Z,105.76
2023-11-25T11:39:56.081Z,114.00
2023-11-25T11:40:57.407Z,121.46
2023-11-25T11:41:56.756Z,131.35
2023-11-25T11:42:56.056Z,132.90
2023-11-25T11:43:56.430Z,104.92
2023-11-25T11:44:57.230Z,105.70
2023-11-25T11:45:56.131Z,105.19
2023-11-25T11:46:56.463Z,82.19
2023-11-25T11:47:55.825Z,76.46
2023-11-25T11:48:56.105Z,73.37
2023-11-25T11:49:56.506Z,67.17
2023-11-25T11:50:55.807Z,74.09
2023-11-25T11:51:56.074Z,84.51
2023-11-25T11:52:56.474Z,88.16
2023-11-25T11:53:55.698Z,95.24
2023-11-25T11:54:57.029Z,106.96
2023-11-25T11:55:56.660Z,105.14
2023-11-25T11:56:55.720Z,97.49
2023-11-25T11:57:57.037Z,107.81
2023-11-25T11:58:57.415Z,115.27
2023-11-25T11:59:56.685Z,115.63
2023-11-25T12:00:57.068Z,137.61
2023-11-25T12:01:56.608Z,123.96
2023-11-25T12:02:55.784Z,111.23
2023-11-25T12:03:57.166Z,118.77
2023-11-25T12:04:56.613Z,136.13
2023-11-25T12:05:56.729Z,134.03
2023-11-25T12:06:56.125Z,119.01
2023-11-25T12:07:55.507Z,118.00
2023-11-25T12:08:55.764Z,126.49
2023-11-25T12:09:56.146Z,153.11
2023-11-25T12:10:56.416Z,170.88
2023-11-25T12:11:55.767Z,142.90
2023-11-25T12:12:56.129Z,125.40
2023-11-25T12:13:55.436Z,114.64
2023-11-25T12:14:55.845Z,97.96
2023-11-25T12:15:56.083Z,86.14
2023-11-25T12:16:57.448Z,72.55
2023-11-25T12:17:55.768Z,65.46
2023-11-25T12:18:56.091Z,59.10
2023-11-25T12:19:55.424Z,51.99
2023-11-25T12:20:55.729Z,49.82
2023-11-25T12:21:56.053Z,55.57
2023-11-25T12:22:56.388Z,68.19
2023-11-25T12:23:55.827Z,84.29
2023-11-25T12:24:56.103Z,97.89
2023-11-25T12:25:56.313Z,96.42
2023-11-25T12:26:55.681Z,89.92
2023-11-25T12:27:56.072Z,73.73
2023-11-25T12:28:56.334Z,76.36
2023-11-25T12:29:55.772Z,89.23
2023-11-25T12:30:56.980Z,99.85
2023-11-25T12:31:55.370Z,105.47
2023-11-25T12:32:56.762Z,95.98
2023-11-25T12:33:56.967Z,77.08
2023-11-25T12:34:55.421Z,72.86
2023-11-25T12:35:55.697Z,75.76
2023-11-25T12:36:56.000Z,84.23
2023-11-25T12:38:04.678Z,83.59
2023-11-25T12:38:56.597Z,85.02
2023-11-25T12:39:55.970Z,86.76
2023-11-25T12:40:55.246Z,85.02
2023-11-25T12:41:55.579Z,84.67
2023-11-25T12:42:56.845Z,79.30
2023-11-25T12:43:55.257Z,73.21
2023-11-25T12:44:55.551Z,77.04
2023-11-25T12:45:55.899Z,84.76
2023-11-25T12:46:55.245Z,88.44
2023-11-25T12:47:55.660Z,92.41
2023-11-25T12:48:55.938Z,87.78
2023-11-25T12:49:56.283Z,77.05
2023-11-25T12:50:55.617Z,61.02
2023-11-25T12:51:54.841Z,54.71
2023-11-25T12:52:55.308Z,54.78
2023-11-25T12:53:55.736Z,48.97
2023-11-25T12:54:54.830Z,49.39
2023-11-25T12:55:55.200Z,51.63
2023-11-25T12:56:55.518Z,57.52
2023-11-25T12:57:54.806Z,58.47
2023-11-25T12:58:55.152Z,59.87
2023-11-25T12:59:55.517Z,58.75
2023-11-25T13:00:54.779Z,62.23
2023-11-25T13:01:55.184Z,61.54
2023-11-25T13:02:55.604Z,68.46
2023-11-25T13:03:54.917Z,71.24
2023-11-25T13:04:55.229Z,79.54
2023-11-25T13:05:55.457Z,74.93
2023-11-25T13:06:54.699Z,80.55
2023-11-25T13:07:55.081Z,84.63
2023-11-25T13:08:55.349Z,74.00
2023-11-25T13:09:54.651Z,75.52